Time;durP1;ratioP1;P1;durP2;ratioP2;P2;SDS_P1;SDS_P2;PMS_P1;PMS_P2;Temp;Humidity;BMP_temperature;BMP_pressure;BME280_temperature;BME280_humidity;BME280_pressure;Samples;Min_cycle;Max_cycle;Signal;HPM_P1;HPM_P2
2021/06/04 00:00:39;;;;;;;12.10;11.10;;;15.90;99.90;;;;;;5068626;28;20318;-57
2021/06/04 00:03:09;;;;;;;12.10;11.10;;;15.80;99.90;;;;;;5056998;28;20762;-64
2021/06/04 00:05:39;;;;;;;12.00;11.00;;;15.80;99.90;;;;;;5066227;28;20446;-63
2021/06/04 00:08:05;;;;;;;10.90;10.10;;;15.90;99.90;;;;;;5068055;28;20418;-64
2021/06/04 00:10:36;;;;;;;12.90;11.60;;;15.90;99.90;;;;;;5066396;28;21002;-64
2021/06/04 00:13:16;;;;;;;11.60;10.63;;;15.80;99.90;;;;;;5068510;28;20423;-64
2021/06/04 00:15:42;;;;;;;10.47;9.47;;;15.80;99.90;;;;;;5067888;28;20883;-64
2021/06/04 00:18:08;;;;;;;11.77;10.90;;;15.80;99.90;;;;;;5071149;28;20446;-64
2021/06/04 00:20:34;;;;;;;11.40;10.50;;;15.90;99.90;;;;;;5060440;28;20467;-64
2021/06/04 00:22:59;;;;;;;12.00;11.00;;;15.90;99.90;;;;;;5072929;28;20861;-52
2021/06/04 00:25:25;;;;;;;11.87;10.77;;;15.90;99.90;;;;;;5072779;28;20661;-64
2021/06/04 00:27:50;;;;;;;11.17;10.27;;;15.80;99.90;;;;;;5072070;28;20192;-63
2021/06/04 00:30:17;;;;;;;10.70;9.80;;;15.80;99.90;;;;;;5068839;28;20197;-64
2021/06/04 00:32:43;;;;;;;11.43;10.53;;;15.80;99.90;;;;;;5066711;28;20185;-64
2021/06/04 00:35:11;;;;;;;11.03;10.23;;;15.90;99.90;;;;;;5065990;28;20940;-63
2021/06/04 00:37:36;;;;;;;10.80;10.00;;;15.80;99.90;;;;;;5071537;28;20868;-64
2021/06/04 00:40:07;;;;;;;10.90;10.10;;;15.80;99.90;;;;;;5071709;28;20541;-64
2021/06/04 00:42:35;;;;;;;11.67;10.77;;;15.80;99.90;;;;;;5061451;28;20181;-63
2021/06/04 00:45:01;;;;;;;11.17;10.23;;;15.80;99.90;;;;;;5072096;28;20765;-63
2021/06/04 00:47:28;;;;;;;10.87;10.07;;;15.80;99.90;;;;;;5071645;28;20436;-62
2021/06/04 00:49:53;;;;;;;11.63;10.50;;;15.80;99.90;;;;;;5072391;28;20423;-64
2021/06/04 00:52:26;;;;;;;12.47;11.37;;;15.70;99.90;;;;;;5061870;28;20446;-64
2021/06/04 00:54:55;;;;;;;11.07;10.27;;;15.70;99.90;;;;;;5072275;28;20205;-63
2021/06/04 00:57:22;;;;;;;11.00;10.10;;;15.70;99.90;;;;;;5070958;28;20442;-64
2021/06/04 00:59:48;;;;;;;12.57;11.57;;;15.70;99.90;;;;;;5071761;28;20470;-57
2021/06/04 01:02:17;;;;;;;10.33;9.53;;;15.70;99.90;;;;;;5069500;28;20504;-64
2021/06/04 01:04:44;;;;;;;10.83;9.93;;;15.70;99.90;;;;;;5072053;28;20439;-64
2021/06/04 01:07:45;;;;;;;10.77;9.97;;;15.60;99.90;;;;;;5069884;28;20497;-64
2021/06/04 01:10:49;;;;;;;11.07;10.17;;;15.60;99.90;;;;;;5069944;28;20435;-64
2021/06/04 01:13:22;;;;;;;11.60;10.50;;;15.60;99.90;;;;;;5052311;28;20436;-63
2021/06/04 01:16:03;;;;;;;11.40;10.40;;;15.50;99.90;;;;;;5070438;28;21256;-64
2021/06/04 01:18:41;;;;;;;10.57;9.67;;;15.50;99.90;;;;;;5070856;28;20462;-64
2021/06/04 01:21:21;;;;;;;11.03;10.13;;;15.50;99.90;;;;;;5059088;28;20773;-64
2021/06/04 01:24:09;;;;;;;9.97;9.27;;;15.60;99.90;;;;;;5071004;28;20472;-63
2021/06/04 01:26:41;;;;;;;10.40;9.60;;;15.60;99.90;;;;;;5072099;28;21158;-64
2021/06/04 01:29:22;;;;;;;10.20;9.40;;;15.60;99.90;;;;;;5057313;28;20492;-65
2021/06/04 01:31:56;;;;;;;11.00;10.10;;;15.60;99.90;;;;;;5065900;28;20529;-64
2021/06/04 01:34:29;;;;;;;10.97;10.10;;;15.60;99.90;;;;;;5071309;28;20471;-64
2021/06/04 01:36:58;;;;;;;10.77;9.87;;;15.60;99.90;;;;;;5070745;28;20447;-64
2021/06/04 01:39:28;;;;;;;11.10;9.97;;;15.60;99.90;;;;;;5071208;28;20418;-64
2021/06/04 01:41:56;;;;;;;11.10;10.20;;;15.70;99.90;;;;;;5068580;28;20467;-64
2021/06/04 01:44:30;;;;;;;11.20;10.30;;;15.70;99.90;;;;;;5071587;28;20446;-64
2021/06/04 01:47:02;;;;;;;10.70;9.80;;;15.80;99.90;;;;;;5071147;28;20931;-64
2021/06/04 01:49:33;;;;;;;10.53;9.73;;;15.80;99.90;;;;;;5071124;28;20476;-63
2021/06/04 01:52:07;;;;;;;11.07;9.97;;;15.80;99.90;;;;;;5070172;28;20450;-63
2021/06/04 01:54:40;;;;;;;10.67;9.57;;;15.90;99.90;;;;;;5070909;28;20435;-63
2021/06/04 01:57:13;;;;;;;10.90;9.80;;;15.90;99.90;;;;;;5070993;28;20428;-64
2021/06/04 01:59:43;;;;;;;10.03;9.13;;;16.00;99.90;;;;;;5068963;28;20479;-63
2021/06/04 02:02:10;;;;;;;10.87;10.07;;;16.00;99.90;;;;;;5069904;28;20509;-64
2021/06/04 02:04:40;;;;;;;10.20;9.50;;;16.00;99.90;;;;;;5070172;28;20429;-64
2021/06/04 02:07:08;;;;;;;10.60;9.80;;;16.10;99.90;;;;;;5070695;28;20458;-64
2021/06/04 02:09:35;;;;;;;9.73;9.03;;;16.10;99.90;;;;;;5064931;28;20442;-64
2021/06/04 02:12:01;;;;;;;10.10;9.20;;;16.10;99.90;;;;;;5070255;28;20437;-63
2021/06/04 02:14:31;;;;;;;10.03;9.03;;;16.20;99.90;;;;;;5070370;28;20423;-63
2021/06/04 02:17:36;;;;;;;9.80;9.10;;;16.20;99.90;;;;;;5066849;28;20197;-64
2021/06/04 02:20:27;;;;;;;9.20;8.43;;;16.30;99.90;;;;;;5066690;28;20490;-63
2021/06/04 02:22:59;;;;;;;9.23;8.53;;;16.40;99.90;;;;;;5070497;28;20955;-64
2021/06/04 02:25:44;;;;;;;10.00;9.10;;;16.50;99.90;;;;;;5069006;28;20831;-64
2021/06/04 02:28:32;;;;;;;9.50;8.80;;;16.60;99.90;;;;;;5070291;28;21342;-64
2021/06/04 02:31:18;;;;;;;9.80;9.07;;;16.60;99.90;;;;;;5068996;28;20438;-63
2021/06/04 02:33:54;;;;;;;9.73;9.03;;;16.60;99.90;;;;;;5069283;28;20432;-64
2021/06/04 02:36:30;;;;;;;10.60;9.73;;;16.60;99.90;;;;;;5067872;28;20443;-64
2021/06/04 02:39:06;;;;;;;9.77;9.07;;;16.60;99.90;;;;;;5070300;28;20428;-64
2021/06/04 02:41:37;;;;;;;10.00;9.30;;;16.70;99.90;;;;;;5067369;28;20471;-64
2021/06/04 02:44:19;;;;;;;10.20;9.40;;;16.70;99.90;;;;;;5070225;28;20760;-64
2021/06/04 02:46:52;;;;;;;9.60;8.90;;;16.90;99.40;;;;;;5068522;28;20422;-64
2021/06/04 02:49:20;;;;;;;10.40;9.60;;;17.00;99.00;;;;;;5069958;28;20426;-64
2021/06/04 02:52:09;;;;;;;9.53;8.93;;;17.10;98.80;;;;;;5069913;28;20418;-64
2021/06/04 02:54:39;;;;;;;9.80;9.10;;;17.20;98.50;;;;;;5069652;28;20431;-64
2021/06/04 02:57:16;;;;;;;9.23;8.63;;;17.30;98.10;;;;;;5068940;28;20451;-63
2021/06/04 02:59:46;;;;;;;10.20;9.50;;;17.40;97.80;;;;;;5069153;28;20477;-60
2021/06/04 03:02:16;;;;;;;9.67;8.97;;;17.40;97.70;;;;;;5070017;28;20517;-65
2021/06/04 03:04:45;;;;;;;9.73;8.97;;;17.40;97.30;;;;;;5071001;28;20427;-64
2021/06/04 03:07:16;;;;;;;10.03;9.30;;;17.50;97.00;;;;;;5070335;28;20436;-65
2021/06/04 03:09:43;;;;;;;10.47;9.67;;;17.50;96.70;;;;;;5070104;28;20465;-64
2021/06/04 03:12:22;;;;;;;9.83;9.10;;;17.60;96.60;;;;;;5070657;28;21155;-60
2021/06/04 03:14:49;;;;;;;9.37;8.77;;;17.60;96.30;;;;;;5070027;28;20423;-64
2021/06/04 03:17:16;;;;;;;9.93;9.17;;;17.70;96.10;;;;;;5069428;28;20465;-53
2021/06/04 03:19:42;;;;;;;9.50;8.87;;;17.70;95.80;;;;;;5071050;28;20423;-63
2021/06/04 03:22:24;;;;;;;10.03;9.23;;;17.80;95.60;;;;;;5068862;28;20572;-63
2021/06/04 03:24:51;;;;;;;10.00;9.13;;;17.80;95.60;;;;;;5070750;28;20260;-64
2021/06/04 03:27:19;;;;;;;10.10;9.20;;;17.80;95.60;;;;;;5070079;28;20433;-64
2021/06/04 03:29:45;;;;;;;10.13;9.40;;;17.90;95.20;;;;;;5070195;28;20425;-64
2021/06/04 03:32:12;;;;;;;9.63;8.93;;;17.90;95.20;;;;;;5070645;28;20529;-64
2021/06/04 03:34:39;;;;;;;10.00;9.20;;;17.90;95.20;;;;;;5070594;28;20442;-66
2021/06/04 03:37:06;;;;;;;9.63;8.97;;;18.00;95.20;;;;;;5070584;28;20931;-65
2021/06/04 03:39:38;;;;;;;9.00;8.40;;;18.00;94.90;;;;;;5067294;28;20437;-65
2021/06/04 03:42:06;;;;;;;10.00;9.20;;;18.00;94.90;;;;;;5069567;28;20520;-65
2021/06/04 03:44:37;;;;;;;9.47;8.77;;;18.10;94.90;;;;;;5069856;28;20423;-66
2021/06/04 03:47:03;;;;;;;9.73;8.93;;;18.00;94.70;;;;;;5069301;28;20450;-65
2021/06/04 03:49:29;;;;;;;10.20;9.20;;;18.10;94.60;;;;;;5069506;28;20464;-64
2021/06/04 03:51:57;;;;;;;9.60;8.90;;;18.10;94.50;;;;;;5069428;28;20912;-65
2021/06/04 03:54:29;;;;;;;9.43;8.67;;;18.20;94.50;;;;;;5069937;28;20181;-65
2021/06/04 03:56:56;;;;;;;9.20;8.60;;;18.30;94.20;;;;;;5065440;28;20449;-65
2021/06/04 03:59:23;;;;;;;9.17;8.40;;;18.30;94.10;;;;;;5069091;28;20489;-65
2021/06/04 04:01:53;;;;;;;10.50;9.80;;;18.30;93.90;;;;;;5069324;28;20471;-65
2021/06/04 04:04:20;;;;;;;9.33;8.53;;;18.30;94.20;;;;;;5063289;28;20955;-65
2021/06/04 04:06:46;;;;;;;9.60;8.90;;;18.40;93.80;;;;;;5067406;28;20819;-64
2021/06/04 04:09:14;;;;;;;9.83;9.03;;;18.50;93.30;;;;;;5069048;28;20419;-64
2021/06/04 04:11:41;;;;;;;10.53;9.40;;;18.50;93.30;;;;;;5067772;28;20185;-64
2021/06/04 04:14:08;;;;;;;9.60;8.80;;;18.70;93.10;;;;;;5069249;28;20443;-64
2021/06/04 04:16:35;;;;;;;9.30;8.60;;;18.70;92.70;;;;;;5068532;28;20442;-64
2021/06/04 04:19:00;;;;;;;9.30;8.60;;;18.80;92.60;;;;;;5063320;28;20470;-64
2021/06/04 04:21:26;;;;;;;9.80;9.10;;;18.70;92.30;;;;;;5068950;28;20498;-64
2021/06/04 04:23:56;;;;;;;9.93;9.23;;;18.70;92.30;;;;;;5062909;28;20231;-64
2021/06/04 04:26:27;;;;;;;9.77;9.07;;;18.70;92.20;;;;;;5057130;28;20442;-64
2021/06/04 04:28:53;;;;;;;9.83;9.10;;;18.70;92.30;;;;;;5059617;28;20790;-65
2021/06/04 04:31:26;;;;;;;8.90;8.27;;;18.70;92.20;;;;;;5059984;28;20454;-65
2021/06/04 04:33:53;;;;;;;9.53;8.83;;;18.60;92.50;;;;;;5056235;28;20312;-65
2021/06/04 04:36:22;;;;;;;9.50;8.80;;;18.70;92.40;;;;;;5058961;28;20770;-64
2021/06/04 04:38:47;;;;;;;9.40;8.80;;;18.60;92.20;;;;;;5059500;28;20446;-64
2021/06/04 04:41:14;;;;;;;9.70;8.87;;;18.50;92.40;;;;;;5060830;28;20470;-64
2021/06/04 04:43:42;;;;;;;10.60;9.80;;;18.60;92.50;;;;;;5064484;28;20196;-64
2021/06/04 04:46:10;;;;;;;10.17;9.40;;;18.60;92.50;;;;;;5064945;28;20461;-64
2021/06/04 04:48:36;;;;;;;9.17;8.57;;;18.60;92.30;;;;;;5067354;28;20473;-64
2021/06/04 04:51:02;;;;;;;9.90;9.20;;;18.50;92.40;;;;;;5067851;28;20831;-65
2021/06/04 04:53:28;;;;;;;9.20;8.50;;;18.60;92.70;;;;;;5064720;28;21127;-63
2021/06/04 04:55:54;;;;;;;9.80;9.10;;;18.50;92.60;;;;;;5065693;28;20463;-64
2021/06/04 04:58:21;;;;;;;9.77;9.07;;;18.50;92.60;;;;;;5067454;28;20677;-64
2021/06/04 05:00:47;;;;;;;9.90;9.10;;;18.60;92.50;;;;;;5067093;28;21059;-63
2021/06/04 05:03:14;;;;;;;10.80;9.90;;;18.60;92.50;;;;;;5068129;28;20514;-62
2021/06/04 05:05:40;;;;;;;9.30;8.70;;;18.60;92.80;;;;;;5070771;28;20428;-64
2021/06/04 05:08:06;;;;;;;9.90;9.20;;;18.60;92.50;;;;;;5070371;28;20975;-63
2021/06/04 05:10:34;;;;;;;9.30;8.63;;;18.70;92.50;;;;;;5070965;28;20184;-63
2021/06/04 05:13:01;;;;;;;9.60;8.80;;;18.70;92.40;;;;;;5068097;28;20442;-62
2021/06/04 05:15:31;;;;;;;10.03;9.17;;;18.80;92.20;;;;;;5067809;28;20431;-63
2021/06/04 05:17:57;;;;;;;9.73;9.03;;;18.80;92.20;;;;;;5067338;28;20481;-63
2021/06/04 05:20:24;;;;;;;10.13;9.30;;;18.70;92.20;;;;;;5065987;28;20545;-63
2021/06/04 05:22:50;;;;;;;9.83;9.13;;;18.90;92.40;;;;;;5070772;28;20453;-64
2021/06/04 05:25:21;;;;;;;9.40;8.70;;;18.80;92.30;;;;;;5069903;28;20411;-65
2021/06/04 05:27:47;;;;;;;10.10;9.30;;;18.90;92.20;;;;;;5068711;28;20435;-64
2021/06/04 05:30:18;;;;;;;9.27;8.67;;;19.10;91.80;;;;;;5068247;28;20969;-63
2021/06/04 05:32:44;;;;;;;9.63;8.93;;;19.10;91.80;;;;;;5065243;28;20455;-63
2021/06/04 05:35:10;;;;;;;9.23;8.27;;;19.10;91.80;;;;;;5068302;28;20424;-61
2021/06/04 05:37:36;;;;;;;9.67;8.97;;;19.10;91.70;;;;;;5065108;28;20953;-64
2021/06/04 05:40:07;;;;;;;9.20;8.60;;;19.10;91.90;;;;;;5070495;28;20422;-64
2021/06/04 05:42:32;;;;;;;9.07;8.30;;;19.20;91.80;;;;;;5070580;28;20260;-64
2021/06/04 05:44:58;;;;;;;9.60;8.90;;;19.20;91.70;;;;;;5069800;28;20427;-64
2021/06/04 05:47:24;;;;;;;9.80;9.00;;;19.10;91.70;;;;;;5069131;28;20481;-64
2021/06/04 05:49:50;;;;;;;9.10;8.40;;;19.30;91.70;;;;;;5066841;28;20267;-64
2021/06/04 05:52:16;;;;;;;8.97;8.33;;;19.30;91.50;;;;;;5069823;28;20227;-64
2021/06/04 05:54:44;;;;;;;10.03;9.40;;;19.30;91.70;;;;;;5068211;28;20435;-56
2021/06/04 05:57:11;;;;;;;9.60;8.63;;;19.30;91.70;;;;;;5070240;28;20181;-64
2021/06/04 05:59:36;;;;;;;9.30;8.60;;;19.30;91.60;;;;;;5067582;28;20494;-64
2021/06/04 06:02:03;;;;;;;9.27;8.57;;;19.30;91.60;;;;;;5069261;28;20652;-64
2021/06/04 06:04:28;;;;;;;10.37;9.47;;;19.40;91.60;;;;;;5069995;28;20566;-64
2021/06/04 06:06:54;;;;;;;10.00;9.00;;;19.40;91.60;;;;;;5070531;28;20431;-64
2021/06/04 06:09:20;;;;;;;10.37;9.10;;;19.40;91.50;;;;;;5070884;28;20213;-64
2021/06/04 06:11:46;;;;;;;10.00;9.27;;;19.50;91.70;;;;;;5064446;28;20190;-65
2021/06/04 06:14:13;;;;;;;9.63;8.73;;;19.50;91.50;;;;;;5060797;28;20429;-63
2021/06/04 06:16:39;;;;;;;9.20;8.60;;;19.60;91.70;;;;;;5070441;28;20894;-63
2021/06/04 06:19:06;;;;;;;9.93;9.03;;;19.50;91.90;;;;;;5070522;28;20420;-63
2021/06/04 06:21:32;;;;;;;9.47;8.67;;;19.50;91.90;;;;;;5069801;28;20469;-64
2021/06/04 06:23:57;;;;;;;10.20;9.50;;;19.60;92.10;;;;;;5070717;28;20445;-65
2021/06/04 06:26:28;;;;;;;9.87;9.07;;;19.70;91.70;;;;;;5056598;28;20861;-65
2021/06/04 06:28:56;;;;;;;9.97;9.27;;;19.90;91.60;;;;;;5069018;28;20174;-64
2021/06/04 06:31:28;;;;;;;9.20;8.60;;;19.90;91.70;;;;;;5070371;28;20436;-65
2021/06/04 06:33:54;;;;;;;9.73;9.03;;;20.10;91.40;;;;;;5070199;28;20461;-60
2021/06/04 06:36:26;;;;;;;10.37;9.37;;;20.30;91.20;;;;;;5069890;28;20437;-65
2021/06/04 06:38:53;;;;;;;9.57;8.97;;;20.60;91.20;;;;;;5069033;28;20450;-63
2021/06/04 06:41:18;;;;;;;9.40;8.80;;;20.70;90.50;;;;;;5070308;28;20471;-63
2021/06/04 06:43:47;;;;;;;10.07;9.10;;;20.80;90.10;;;;;;5069919;28;20446;-63
2021/06/04 06:46:15;;;;;;;9.70;9.10;;;21.00;89.70;;;;;;5070216;28;20196;-63
2021/06/04 06:48:41;;;;;;;9.60;8.90;;;21.20;89.20;;;;;;5068789;28;20439;-64
2021/06/04 06:51:09;;;;;;;9.67;8.97;;;21.30;88.40;;;;;;5070449;28;20907;-63
2021/06/04 06:53:37;;;;;;;9.87;9.17;;;21.30;87.70;;;;;;5065839;28;20181;-63
2021/06/04 06:56:03;;;;;;;10.23;9.33;;;21.40;88.20;;;;;;5068996;28;20431;-64
2021/06/04 06:58:29;;;;;;;9.70;8.80;;;21.50;87.60;;;;;;5067583;28;20488;-64
2021/06/04 07:00:56;;;;;;;9.93;9.23;;;21.60;87.90;;;;;;5069787;28;20483;-63
2021/06/04 07:03:27;;;;;;;10.03;9.30;;;21.60;87.10;;;;;;5068784;28;20173;-61
2021/06/04 07:05:53;;;;;;;10.50;9.80;;;21.40;87.30;;;;;;5068834;28;20448;-64
2021/06/04 07:08:19;;;;;;;9.77;8.93;;;21.40;88.50;;;;;;5068828;28;20556;-63
2021/06/04 07:10:45;;;;;;;10.17;9.27;;;21.50;88.80;;;;;;5069550;28;20419;-63
2021/06/04 07:13:14;;;;;;;9.90;9.10;;;21.80;88.60;;;;;;5067967;28;20504;-63
2021/06/04 07:15:42;;;;;;;9.93;9.03;;;21.90;87.90;;;;;;5069356;28;20192;-63
2021/06/04 07:18:09;;;;;;;10.63;9.80;;;22.00;87.40;;;;;;5068959;28;21134;-63
2021/06/04 07:20:36;;;;;;;9.87;9.17;;;22.00;86.50;;;;;;5068662;28;20467;-63
2021/06/04 07:23:05;;;;;;;10.13;9.43;;;22.10;86.90;;;;;;5069199;28;20420;-63
2021/06/04 07:25:33;;;;;;;9.83;8.83;;;22.10;86.90;;;;;;5069012;28;20439;-64
2021/06/04 07:27:59;;;;;;;10.50;9.80;;;22.30;86.80;;;;;;5066606;28;20818;-63
2021/06/04 07:30:31;;;;;;;10.50;9.70;;;22.30;86.70;;;;;;5068785;28;20430;-63
2021/06/04 07:33:01;;;;;;;10.33;9.53;;;22.40;87.10;;;;;;5068948;28;20428;-64
2021/06/04 07:35:28;;;;;;;10.40;9.40;;;22.60;85.60;;;;;;5069131;28;20407;-63
2021/06/04 07:37:55;;;;;;;9.33;8.67;;;22.60;85.30;;;;;;5069060;28;20423;-63
2021/06/04 07:40:24;;;;;;;10.03;9.27;;;22.60;84.70;;;;;;5067886;28;20489;-53
2021/06/04 07:42:50;;;;;;;10.23;9.53;;;22.50;84.60;;;;;;5067336;28;20440;-63
2021/06/04 07:45:18;;;;;;;10.13;9.53;;;22.60;85.50;;;;;;5068258;28;20419;-63
2021/06/04 07:47:43;;;;;;;10.00;9.17;;;22.70;84.10;;;;;;5066821;28;20569;-64
2021/06/04 07:50:11;;;;;;;11.37;9.40;;;22.70;83.70;;;;;;5067691;28;20890;-64
2021/06/04 07:52:37;;;;;;;9.60;8.80;;;22.60;83.50;;;;;;5067867;28;20196;-63
2021/06/04 07:55:06;;;;;;;10.97;10.17;;;22.80;83.20;;;;;;5065010;28;20423;-64
2021/06/04 07:57:31;;;;;;;11.07;9.93;;;22.70;83.10;;;;;;5067920;28;20415;-63
2021/06/04 07:59:57;;;;;;;10.90;10.20;;;22.70;83.70;;;;;;5068277;28;20618;-62
2021/06/04 08:02:23;;;;;;;11.03;10.33;;;22.80;83.20;;;;;;5067350;28;20181;-60
2021/06/04 08:04:51;;;;;;;9.30;8.70;;;22.80;83.20;;;;;;5068730;28;20184;-64
2021/06/04 08:07:17;;;;;;;10.03;9.40;;;23.00;83.00;;;;;;5069004;28;20407;-63
2021/06/04 08:09:42;;;;;;;9.73;9.00;;;23.20;83.00;;;;;;5065151;28;20861;-61
2021/06/04 08:12:12;;;;;;;10.33;9.63;;;23.40;83.10;;;;;;5059716;28;20670;-63
2021/06/04 08:14:39;;;;;;;9.40;8.70;;;23.50;81.20;;;;;;5063864;28;20638;-64
2021/06/04 08:17:05;;;;;;;10.47;9.77;;;23.70;80.90;;;;;;5067363;28;21152;-64
2021/06/04 08:19:33;;;;;;;10.20;9.20;;;23.90;81.00;;;;;;5068546;28;20454;-64
2021/06/04 08:22:12;;;;;;;9.60;8.87;;;23.90;79.80;;;;;;5067232;28;20561;-63
2021/06/04 08:24:37;;;;;;;10.10;9.40;;;24.20;79.10;;;;;;5068086;28;21294;-64
2021/06/04 08:27:05;;;;;;;9.53;8.93;;;24.30;77.40;;;;;;5068662;28;20465;-63
2021/06/04 08:29:31;;;;;;;9.70;8.87;;;24.20;76.70;;;;;;5068665;28;20593;-63
2021/06/04 08:32:02;;;;;;;10.00;9.20;;;24.30;78.00;;;;;;5067019;28;20526;-62
2021/06/04 08:34:28;;;;;;;10.13;9.43;;;24.50;77.50;;;;;;5068724;28;20181;-63
2021/06/04 08:36:55;;;;;;;10.47;9.50;;;24.70;75.60;;;;;;5069475;28;20427;-60
2021/06/04 08:39:28;;;;;;;9.10;8.50;;;24.70;76.60;;;;;;5073098;28;21065;-64
2021/06/04 08:42:30;;;;;;;9.33;8.73;;;25.00;76.40;;;;;;5071727;28;20495;-64
2021/06/04 08:45:29;;;;;;;10.07;9.40;;;25.10;76.80;;;;;;5073130;28;20411;-63
2021/06/04 08:48:19;;;;;;;9.97;9.27;;;25.30;76.40;;;;;;5071980;28;20791;-65
2021/06/04 08:51:00;;;;;;;9.77;9.17;;;25.30;76.10;;;;;;5062040;28;20531;-63
2021/06/04 08:53:32;;;;;;;10.67;9.67;;;25.40;75.80;;;;;;5072643;28;20415;-63
2021/06/04 08:56:09;;;;;;;9.40;8.80;;;25.60;76.30;;;;;;5069484;28;20431;-65
2021/06/04 08:58:44;;;;;;;9.83;9.10;;;25.70;76.00;;;;;;5072192;28;20458;-65
2021/06/04 09:01:20;;;;;;;10.70;9.90;;;25.90;74.10;;;;;;5071469;28;20905;-64
2021/06/04 09:03:52;;;;;;;9.40;8.60;;;25.80;73.70;;;;;;5072062;28;20513;-64
2021/06/04 09:06:29;;;;;;;10.33;9.63;;;25.60;77.10;;;;;;5072968;28;20517;-65
2021/06/04 09:09:01;;;;;;;10.57;9.80;;;25.60;78.00;;;;;;5072332;28;20419;-64
2021/06/04 09:11:34;;;;;;;10.03;9.33;;;25.50;79.80;;;;;;5073681;28;20411;-56
2021/06/04 09:13:59;;;;;;;9.90;9.00;;;25.40;80.50;;;;;;5059997;28;20423;-62
2021/06/04 09:16:41;;;;;;;10.67;9.87;;;25.40;80.90;;;;;;5073058;28;20423;-65
2021/06/04 09:19:45;;;;;;;10.40;9.60;;;25.50;77.60;;;;;;5073147;28;20644;-63
2021/06/04 09:22:12;;;;;;;9.93;9.20;;;25.60;77.80;;;;;;5071477;28;20550;-65
2021/06/04 09:24:43;;;;;;;11.57;10.50;;;25.60;77.60;;;;;;5072836;28;20423;-64
2021/06/04 09:27:39;;;;;;;9.77;9.10;;;25.60;76.00;;;;;;5073484;28;20495;-64
2021/06/04 09:30:33;;;;;;;9.67;9.07;;;25.60;75.80;;;;;;5073661;28;20426;-65
2021/06/04 09:33:17;;;;;;;9.80;9.00;;;25.70;75.10;;;;;;5059611;28;20430;-64
2021/06/04 09:36:04;;;;;;;10.33;9.53;;;25.70;74.80;;;;;;5073488;28;20408;-65
2021/06/04 09:38:38;;;;;;;10.77;9.63;;;25.70;74.80;;;;;;5058587;28;20424;-64
2021/06/04 09:41:15;;;;;;;10.27;9.67;;;25.70;74.90;;;;;;5068680;28;20462;-65
2021/06/04 09:43:41;;;;;;;10.60;9.80;;;25.70;74.70;;;;;;5072520;28;20427;-64
2021/06/04 09:46:10;;;;;;;11.33;10.50;;;25.60;76.30;;;;;;5073212;28;20412;-64
2021/06/04 09:48:40;;;;;;;9.80;9.10;;;25.70;75.30;;;;;;5072685;28;20196;-64
2021/06/04 09:51:34;;;;;;;10.63;9.83;;;25.70;75.90;;;;;;5071959;28;20525;-64
2021/06/04 09:54:15;;;;;;;11.40;10.07;;;25.80;76.60;;;;;;5071742;28;20474;-63
2021/06/04 09:56:41;;;;;;;10.20;9.50;;;25.60;76.60;;;;;;5073018;28;20418;-64
2021/06/04 09:59:13;;;;;;;11.17;10.27;;;25.60;76.60;;;;;;5072349;28;20455;-64
2021/06/04 10:01:52;;;;;;;10.27;9.30;;;25.70;76.30;;;;;;5072460;28;20209;-64
2021/06/04 10:04:32;;;;;;;9.70;9.00;;;25.70;75.40;;;;;;5068625;28;20425;-63
2021/06/04 10:07:13;;;;;;;10.23;9.43;;;26.00;76.00;;;;;;5070484;28;21185;-64
2021/06/04 10:09:42;;;;;;;10.93;10.10;;;26.20;74.50;;;;;;5067768;28;20439;-63
2021/06/04 10:12:18;;;;;;;9.53;8.93;;;26.20;74.30;;;;;;5064458;28;20451;-64
2021/06/04 10:14:55;;;;;;;10.30;9.50;;;26.50;73.00;;;;;;5070919;28;20411;-66
2021/06/04 10:19:49;;;;;;;12.40;10.33;;;26.60;73.60;;;;;;5070677;28;20426;-56
2021/06/04 10:22:24;;;;;;;10.27;9.57;;;26.80;68.10;;;;;;5070843;28;20560;-63
2021/06/04 10:24:54;;;;;;;10.87;10.07;;;26.90;68.40;;;;;;5071413;28;20472;-64
2021/06/04 10:27:38;;;;;;;10.17;9.40;;;26.90;68.30;;;;;;5070181;28;20474;-63
2021/06/04 10:30:15;;;;;;;10.60;9.90;;;26.90;69.60;;;;;;5070860;28;20403;-63
2021/06/04 10:32:54;;;;;;;10.23;9.53;;;27.10;70.70;;;;;;5070947;28;20384;-64
2021/06/04 10:35:46;;;;;;;10.90;10.03;;;27.40;69.10;;;;;;5069481;28;20488;-64
2021/06/04 10:38:18;;;;;;;10.40;9.53;;;27.80;67.80;;;;;;5070803;28;20415;-66
2021/06/04 10:40:54;;;;;;;10.43;9.80;;;27.70;68.80;;;;;;5069510;28;20497;-56
2021/06/04 10:43:44;;;;;;;10.07;9.37;;;27.80;69.40;;;;;;5069016;28;20435;-63
2021/06/04 10:46:17;;;;;;;10.13;9.53;;;28.10;66.80;;;;;;5068093;28;21000;-63
2021/06/04 10:49:21;;;;;;;10.50;9.70;;;28.00;66.80;;;;;;5069045;28;20508;-54
2021/06/04 10:52:27;;;;;;;10.73;10.03;;;28.20;64.30;;;;;;5064299;28;20541;-64
2021/06/04 10:55:14;;;;;;;11.07;9.93;;;28.30;63.60;;;;;;5068156;28;20773;-64
2021/06/04 10:57:48;;;;;;;10.47;9.67;;;28.20;65.70;;;;;;5064684;28;20418;-64
2021/06/04 11:00:27;;;;;;;10.40;9.70;;;28.10;67.80;;;;;;5068403;28;20487;-64
2021/06/04 11:03:15;;;;;;;11.23;10.43;;;28.30;67.70;;;;;;5069796;28;20564;-64
2021/06/04 11:06:02;;;;;;;10.60;9.80;;;28.40;67.10;;;;;;5069329;28;20423;-64
2021/06/04 11:08:50;;;;;;;10.20;9.50;;;28.60;65.90;;;;;;5070294;28;20485;-67
2021/06/04 11:11:43;;;;;;;10.93;10.23;;;29.00;64.80;;;;;;5066559;28;20438;-63
2021/06/04 11:14:30;;;;;;;10.83;10.03;;;29.30;64.60;;;;;;5069383;28;20403;-64
2021/06/04 11:17:28;;;;;;;10.50;9.70;;;29.80;62.50;;;;;;5067907;28;20492;-62
2021/06/04 11:20:12;;;;;;;10.10;9.50;;;30.40;59.50;;;;;;5068556;28;20408;-63
2021/06/04 11:22:37;;;;;;;9.53;8.93;;;30.60;55.90;;;;;;5069503;28;20462;-64
2021/06/04 11:25:27;;;;;;;9.33;8.63;;;30.70;55.30;;;;;;5068979;28;20449;-64
2021/06/04 11:28:06;;;;;;;9.70;9.07;;;30.70;52.80;;;;;;5070026;28;20181;-63
2021/06/04 11:30:33;;;;;;;9.70;8.90;;;30.90;53.20;;;;;;5049196;28;20485;-63
2021/06/04 11:33:16;;;;;;;9.30;8.60;;;30.90;52.80;;;;;;5051155;28;20812;-63
2021/06/04 11:35:50;;;;;;;9.57;8.77;;;30.60;52.80;;;;;;5068554;28;20427;-63
2021/06/04 11:38:44;;;;;;;8.90;8.40;;;30.60;50.30;;;;;;5066330;28;20924;-63
2021/06/04 11:41:18;;;;;;;9.17;8.37;;;30.90;48.80;;;;;;5061098;28;21220;-64
2021/06/04 11:43:49;;;;;;;8.67;8.07;;;31.40;43.90;;;;;;5066343;28;20428;-64
2021/06/04 11:46:21;;;;;;;8.57;8.07;;;31.30;43.30;;;;;;5067289;28;20432;-62
2021/06/04 11:49:10;;;;;;;8.57;8.07;;;31.40;40.90;;;;;;5068408;28;20424;-57
2021/06/04 11:51:48;;;;;;;8.17;7.70;;;31.20;40.60;;;;;;5066045;28;20427;-65
2021/06/04 11:54:31;;;;;;;8.63;7.93;;;31.50;39.40;;;;;;5068400;28;20785;-64
2021/06/04 11:57:00;;;;;;;8.00;7.40;;;31.70;40.40;;;;;;5069302;28;20407;-64
2021/06/04 11:59:47;;;;;;;8.10;7.47;;;32.00;39.80;;;;;;5067422;28;20451;-65
2021/06/04 12:02:36;;;;;;;7.60;7.20;;;32.30;39.90;;;;;;5061820;28;20937;-61
2021/06/04 12:05:19;;;;;;;8.57;7.77;;;32.90;38.90;;;;;;5064946;28;20418;-53
2021/06/04 12:08:12;;;;;;;7.80;7.30;;;33.50;37.60;;;;;;5064074;28;20430;-64
2021/06/04 12:10:49;;;;;;;7.90;7.40;;;33.40;37.20;;;;;;5065955;28;20399;-49
2021/06/04 12:13:40;;;;;;;8.07;7.37;;;33.30;33.90;;;;;;5063285;28;20442;-52
2021/06/04 12:16:27;;;;;;;9.07;8.37;;;32.80;33.80;;;;;;5067154;28;20438;-50
2021/06/04 12:19:10;;;;;;;8.90;8.30;;;32.10;35.60;;;;;;5066272;28;20510;-47
2021/06/04 12:21:38;;;;;;;8.10;7.60;;;31.70;36.90;;;;;;5064317;28;20853;-51
2021/06/04 12:24:20;;;;;;;8.27;7.77;;;31.40;36.40;;;;;;5066529;28;20450;-52
2021/06/04 12:26:52;;;;;;;8.10;7.60;;;31.00;37.30;;;;;;5065452;28;20519;-50
2021/06/04 12:29:21;;;;;;;8.83;8.23;;;30.70;39.70;;;;;;5066851;28;20415;-53
2021/06/04 12:32:04;;;;;;;8.47;7.87;;;30.30;39.50;;;;;;5065710;28;20427;-50
2021/06/04 12:34:39;;;;;;;8.10;7.53;;;30.30;40.60;;;;;;5065416;28;20435;-48
2021/06/04 12:37:09;;;;;;;9.27;8.67;;;30.10;41.20;;;;;;5064331;28;20441;-49
2021/06/04 12:39:43;;;;;;;8.80;8.20;;;30.00;41.20;;;;;;5066981;28;20423;-52
2021/06/04 12:42:18;;;;;;;10.00;9.40;;;29.80;42.00;;;;;;5064510;28;20516;-46
2021/06/04 12:44:50;;;;;;;8.50;8.00;;;29.60;43.00;;;;;;5065032;28;20476;-50
2021/06/04 12:47:22;;;;;;;8.60;8.10;;;29.60;45.20;;;;;;5066129;28;20420;-52
2021/06/04 12:49:47;;;;;;;9.20;8.60;;;29.60;44.90;;;;;;5066858;28;20417;-48
2021/06/04 12:52:19;;;;;;;8.43;7.90;;;29.60;45.30;;;;;;5066121;28;20419;-46
2021/06/04 12:54:45;;;;;;;8.83;8.20;;;29.40;45.00;;;;;;5065487;28;20570;-46
2021/06/04 12:57:26;;;;;;;9.50;8.90;;;29.30;44.70;;;;;;5066172;28;20415;-50
2021/06/04 12:59:52;;;;;;;9.63;8.90;;;29.20;46.50;;;;;;5064354;28;20236;-49
2021/06/04 13:02:23;;;;;;;9.43;8.83;;;29.20;45.30;;;;;;5067350;28;20467;-49
2021/06/04 13:04:53;;;;;;;9.00;8.30;;;29.30;46.50;;;;;;5067523;28;20177;-50
2021/06/04 13:07:28;;;;;;;8.70;8.10;;;29.00;46.60;;;;;;5066544;28;20430;-52
2021/06/04 13:10:24;;;;;;;9.50;8.40;;;29.10;45.90;;;;;;5064555;28;20797;-47